Terminal Aerodrome Forecast
Issued by NWS Shreveport, LA

Home | Current Version | Previous Version | Text Only | Print | Product List | Glossary On
Versions: 1 2 3 4 5 6 7 8 9 10 11 12 13 14 15
000
FTUS44 KSHV 202110 AAA
TAFTYR
TAF AMD
KTYR 202110Z 2021/2118 28007KT 6SM -RA BR SCT025 BKN040
      TEMPO 2021/2024 6SM -TSRA BR BKN024CB
     FM210100 VRB03KT P6SM BKN120 BKN250
     FM211100 VRB03KT 5SM BR SCT250
     FM211400 VRB03KT P6SM SCT250
     FM211600 VRB03KT P6SM SCT030 SCT250=

USA.gov is the U.S. government's official web portal to all federal, state and local government web resources and services.